sensor_id;sensor_type;location;lat;lon;timestamp;temperature;humidity
7413;DHT22;3748;48.136;11.538;2022-12-18T00:01:31;-4.30;99.90
7413;DHT22;3748;48.136;11.538;2022-12-18T00:04:04;-4.30;99.90
7413;DHT22;3748;48.136;11.538;2022-12-18T00:06:32;-4.20;99.90
7413;DHT22;3748;48.136;11.538;2022-12-18T00:09:00;-4.10;99.90
7413;DHT22;3748;48.136;11.538;2022-12-18T00:11:29;-4.20;99.90
7413;DHT22;3748;48.136;11.538;2022-12-18T00:13:58;-4.20;99.90
7413;DHT22;3748;48.136;11.538;2022-12-18T00:16:26;-4.20;99.90
7413;DHT22;3748;48.136;11.538;2022-12-18T00:18:57;-4.20;99.90
7413;DHT22;3748;48.136;11.538;2022-12-18T00:21:25;-4.20;99.90
7413;DHT22;3748;48.136;11.538;2022-12-18T00:23:52;-4.20;99.90
7413;DHT22;3748;48.136;11.538;2022-12-18T00:26:20;-4.20;99.90
7413;DHT22;3748;48.136;11.538;2022-12-18T00:28:51;-4.10;99.90
7413;DHT22;3748;48.136;11.538;2022-12-18T00:31:20;-4.10;99.90
7413;DHT22;3748;48.136;11.538;2022-12-18T00:33:48;-4.10;99.90
7413;DHT22;3748;48.136;11.538;2022-12-18T00:36:16;-4.10;99.90
7413;DHT22;3748;48.136;11.538;2022-12-18T00:38:47;-4.20;99.90
7413;DHT22;3748;48.136;11.538;2022-12-18T00:41:16;-4.20;99.90
7413;DHT22;3748;48.136;11.538;2022-12-18T00:44:05;-4.20;99.90
7413;DHT22;3748;48.136;11.538;2022-12-18T00:46:31;-4.20;99.90
7413;DHT22;3748;48.136;11.538;2022-12-18T00:48:59;-4.20;99.90
7413;DHT22;3748;48.136;11.538;2022-12-18T00:51:26;-4.20;99.90
7413;DHT22;3748;48.136;11.538;2022-12-18T00:53:57;-4.20;99.90
7413;DHT22;3748;48.136;11.538;2022-12-18T00:56:24;-4.20;99.90
7413;DHT22;3748;48.136;11.538;2022-12-18T00:58:51;-3.90;99.90
7413;DHT22;3748;48.136;11.538;2022-12-18T01:01:18;-3.50;99.90
7413;DHT22;3748;48.136;11.538;2022-12-18T01:03:47;-4.00;99.90
7413;DHT22;3748;48.136;11.538;2022-12-18T01:06:15;-4.00;99.90
7413;DHT22;3748;48.136;11.538;2022-12-18T01:08:43;-4.00;99.90
7413;DHT22;3748;48.136;11.538;2022-12-18T01:11:20;-4.10;99.90
7413;DHT22;3748;48.136;11.538;2022-12-18T01:13:47;-4.10;99.90
7413;DHT22;3748;48.136;11.538;2022-12-18T01:16:18;-4.10;99.90
7413;DHT22;3748;48.136;11.538;2022-12-18T01:18:45;-3.70;99.90
7413;DHT22;3748;48.136;11.538;2022-12-18T01:21:14;-4.00;99.90
7413;DHT22;3748;48.136;11.538;2022-12-18T01:23:41;-4.00;99.90
7413;DHT22;3748;48.136;11.538;2022-12-18T01:26:17;-4.00;99.90
7413;DHT22;3748;48.136;11.538;2022-12-18T01:28:44;-4.10;99.90
7413;DHT22;3748;48.136;11.538;2022-12-18T01:31:13;-4.10;99.90
7413;DHT22;3748;48.136;11.538;2022-12-18T01:33:40;-4.10;99.90
7413;DHT22;3748;48.136;11.538;2022-12-18T01:36:08;-4.10;99.90
7413;DHT22;3748;48.136;11.538;2022-12-18T01:38:35;-4.10;99.90
7413;DHT22;3748;48.136;11.538;2022-12-18T01:41:02;-4.10;99.90
7413;DHT22;3748;48.136;11.538;2022-12-18T01:43:47;-4.10;99.90
7413;DHT22;3748;48.136;11.538;2022-12-18T01:46:14;-3.80;99.90
7413;DHT22;3748;48.136;11.538;2022-12-18T01:48:41;-4.00;99.90
7413;DHT22;3748;48.136;11.538;2022-12-18T01:51:10;-4.10;99.90
7413;DHT22;3748;48.136;11.538;2022-12-18T01:53:39;-4.10;99.90
7413;DHT22;3748;48.136;11.538;2022-12-18T01:56:07;-3.70;99.90
7413;DHT22;3748;48.136;11.538;2022-12-18T01:58:39;-4.00;99.90
7413;DHT22;3748;48.136;11.538;2022-12-18T02:01:09;-4.00;99.90
7413;DHT22;3748;48.136;11.538;2022-12-18T02:03:37;-4.10;99.90
7413;DHT22;3748;48.136;11.538;2022-12-18T02:06:12;-4.20;99.90
7413;DHT22;3748;48.136;11.538;2022-12-18T02:08:48;-4.20;99.90
7413;DHT22;3748;48.136;11.538;2022-12-18T02:11:20;-4.20;99.90
7413;DHT22;3748;48.136;11.538;2022-12-18T02:13:57;-4.20;99.90
7413;DHT22;3748;48.136;11.538;2022-12-18T02:16:46;-4.10;99.90
7413;DHT22;3748;48.136;11.538;2022-12-18T02:19:27;-4.20;99.90
7413;DHT22;3748;48.136;11.538;2022-12-18T02:22:11;-4.20;99.90
7413;DHT22;3748;48.136;11.538;2022-12-18T02:24:45;-4.20;99.90
7413;DHT22;3748;48.136;11.538;2022-12-18T02:27:24;-4.30;99.90
7413;DHT22;3748;48.136;11.538;2022-12-18T02:29:52;-4.20;99.90
7413;DHT22;3748;48.136;11.538;2022-12-18T02:32:24;-4.20;99.90
7413;DHT22;3748;48.136;11.538;2022-12-18T02:34:56;-4.30;99.90
7413;DHT22;3748;48.136;11.538;2022-12-18T02:37:24;-4.30;99.90
7413;DHT22;3748;48.136;11.538;2022-12-18T02:39:55;-4.40;99.90
7413;DHT22;3748;48.136;11.538;2022-12-18T02:42:28;-4.30;99.90
7413;DHT22;3748;48.136;11.538;2022-12-18T02:44:55;-4.40;99.90
7413;DHT22;3748;48.136;11.538;2022-12-18T02:47:26;-4.40;99.90
7413;DHT22;3748;48.136;11.538;2022-12-18T02:50:01;-4.40;99.90
7413;DHT22;3748;48.136;11.538;2022-12-18T02:52:33;-4.60;99.90
7413;DHT22;3748;48.136;11.538;2022-12-18T02:55:12;-4.80;99.90
7413;DHT22;3748;48.136;11.538;2022-12-18T02:57:45;-4.60;99.90
7413;DHT22;3748;48.136;11.538;2022-12-18T03:00:16;-4.50;99.90
7413;DHT22;3748;48.136;11.538;2022-12-18T03:02:46;-4.40;99.90
7413;DHT22;3748;48.136;11.538;2022-12-18T03:05:18;-4.40;99.90
7413;DHT22;3748;48.136;11.538;2022-12-18T03:07:53;-4.40;99.90
7413;DHT22;3748;48.136;11.538;2022-12-18T03:10:28;-4.40;99.90
7413;DHT22;3748;48.136;11.538;2022-12-18T03:13:01;-4.10;99.90
7413;DHT22;3748;48.136;11.538;2022-12-18T03:15:31;-4.00;99.90
7413;DHT22;3748;48.136;11.538;2022-12-18T03:18:03;-4.30;99.90
7413;DHT22;3748;48.136;11.538;2022-12-18T03:20:33;-4.40;99.90
7413;DHT22;3748;48.136;11.538;2022-12-18T03:23:07;-4.40;99.90
7413;DHT22;3748;48.136;11.538;2022-12-18T03:25:38;-3.40;99.90
7413;DHT22;3748;48.136;11.538;2022-12-18T03:28:10;-3.90;99.90
7413;DHT22;3748;48.136;11.538;2022-12-18T03:30:40;-4.50;99.90
7413;DHT22;3748;48.136;11.538;2022-12-18T03:33:12;-3.90;99.90
7413;DHT22;3748;48.136;11.538;2022-12-18T03:35:41;-4.50;99.90
7413;DHT22;3748;48.136;11.538;2022-12-18T03:38:09;-4.40;99.90
7413;DHT22;3748;48.136;11.538;2022-12-18T03:40:45;-4.40;99.90
7413;DHT22;3748;48.136;11.538;2022-12-18T03:43:31;-4.30;99.90
7413;DHT22;3748;48.136;11.538;2022-12-18T03:46:07;-4.40;99.90
7413;DHT22;3748;48.136;11.538;2022-12-18T03:48:38;-4.40;99.90
7413;DHT22;3748;48.136;11.538;2022-12-18T03:51:10;-4.40;99.90
7413;DHT22;3748;48.136;11.538;2022-12-18T03:53:45;-4.30;99.90
7413;DHT22;3748;48.136;11.538;2022-12-18T03:56:16;-4.20;99.90
7413;DHT22;3748;48.136;11.538;2022-12-18T05:52:05;-4.20;99.90
7413;DHT22;3748;48.136;11.538;2022-12-18T05:54:32;-4.30;99.90
7413;DHT22;3748;48.136;11.538;2022-12-18T05:56:59;-4.40;99.90
7413;DHT22;3748;48.136;11.538;2022-12-18T05:59:26;-4.40;99.90
7413;DHT22;3748;48.136;11.538;2022-12-18T06:01:53;-4.30;99.90
7413;DHT22;3748;48.136;11.538;2022-12-18T06:04:20;-4.30;99.90
7413;DHT22;3748;48.136;11.538;2022-12-18T06:06:47;-4.20;99.90
7413;DHT22;3748;48.136;11.538;2022-12-18T06:09:15;-4.30;99.90
7413;DHT22;3748;48.136;11.538;2022-12-18T06:11:42;-4.20;99.90
7413;DHT22;3748;48.136;11.538;2022-12-18T06:14:19;-3.50;99.90
7413;DHT22;3748;48.136;11.538;2022-12-18T06:16:46;-4.20;99.90
7413;DHT22;3748;48.136;11.538;2022-12-18T06:19:15;-4.30;99.90
7413;DHT22;3748;48.136;11.538;2022-12-18T06:21:42;-3.70;99.90
7413;DHT22;3748;48.136;11.538;2022-12-18T06:24:09;-4.40;99.90
7413;DHT22;3748;48.136;11.538;2022-12-18T06:26:40;-3.90;99.90
7413;DHT22;3748;48.136;11.538;2022-12-18T06:29:07;-4.30;99.90
7413;DHT22;3748;48.136;11.538;2022-12-18T06:31:34;-4.40;99.90
7413;DHT22;3748;48.136;11.538;2022-12-18T06:34:02;-3.30;99.90
7413;DHT22;3748;48.136;11.538;2022-12-18T06:36:33;-4.30;99.90
7413;DHT22;3748;48.136;11.538;2022-12-18T06:39:01;-4.30;99.90
7413;DHT22;3748;48.136;11.538;2022-12-18T06:41:28;-4.30;99.90
7413;DHT22;3748;48.136;11.538;2022-12-18T06:43:57;-4.30;99.90
7413;DHT22;3748;48.136;11.538;2022-12-18T06:46:24;-4.20;99.90
7413;DHT22;3748;48.136;11.538;2022-12-18T06:48:53;-4.20;99.90
7413;DHT22;3748;48.136;11.538;2022-12-18T06:51:20;-4.30;99.90
7413;DHT22;3748;48.136;11.538;2022-12-18T06:53:48;-3.90;99.90
7413;DHT22;3748;48.136;11.538;2022-12-18T06:56:15;-4.20;99.90
7413;DHT22;3748;48.136;11.538;2022-12-18T06:58:42;-3.70;99.90
7413;DHT22;3748;48.136;11.538;2022-12-18T07:01:12;-4.40;99.90
7413;DHT22;3748;48.136;11.538;2022-12-18T07:03:46;-3.60;99.90
7413;DHT22;3748;48.136;11.538;2022-12-18T07:06:22;-5.10;99.90
7413;DHT22;3748;48.136;11.538;2022-12-18T07:08:51;-3.10;99.90
7413;DHT22;3748;48.136;11.538;2022-12-18T07:11:18;-4.50;99.90
7413;DHT22;3748;48.136;11.538;2022-12-18T07:13:46;-3.80;99.90
7413;DHT22;3748;48.136;11.538;2022-12-18T07:16:16;-4.40;99.90
7413;DHT22;3748;48.136;11.538;2022-12-18T07:18:46;-4.30;99.90
7413;DHT22;3748;48.136;11.538;2022-12-18T07:21:16;-4.30;99.90
7413;DHT22;3748;48.136;11.538;2022-12-18T07:23:43;-4.30;99.90
7413;DHT22;3748;48.136;11.538;2022-12-18T07:26:11;-4.40;99.90
7413;DHT22;3748;48.136;11.538;2022-12-18T07:28:40;-4.40;99.90
7413;DHT22;3748;48.136;11.538;2022-12-18T07:31:11;-4.40;99.90
7413;DHT22;3748;48.136;11.538;2022-12-18T07:33:46;-4.00;99.90
7413;DHT22;3748;48.136;11.538;2022-12-18T07:36:13;-4.40;99.90
7413;DHT22;3748;48.136;11.538;2022-12-18T07:38:40;-4.30;99.90
7413;DHT22;3748;48.136;11.538;2022-12-18T07:41:09;-3.70;99.90
7413;DHT22;3748;48.136;11.538;2022-12-18T07:43:36;-4.40;99.90
7413;DHT22;3748;48.136;11.538;2022-12-18T07:46:03;-4.40;99.90
7413;DHT22;3748;48.136;11.538;2022-12-18T07:48:39;-4.40;99.90
7413;DHT22;3748;48.136;11.538;2022-12-18T07:51:08;-4.40;99.90
7413;DHT22;3748;48.136;11.538;2022-12-18T07:53:36;-4.60;99.90
7413;DHT22;3748;48.136;11.538;2022-12-18T07:56:06;-4.50;99.90
7413;DHT22;3748;48.136;11.538;2022-12-18T07:58:35;-4.40;99.90
7413;DHT22;3748;48.136;11.538;2022-12-18T08:01:03;-4.30;99.90
7413;DHT22;3748;48.136;11.538;2022-12-18T08:03:31;-4.30;99.90
7413;DHT22;3748;48.136;11.538;2022-12-18T08:05:59;-4.30;99.90
7413;DHT22;3748;48.136;11.538;2022-12-18T08:08:29;-4.20;99.90
7413;DHT22;3748;48.136;11.538;2022-12-18T08:10:57;-4.20;99.90
7413;DHT22;3748;48.136;11.538;2022-12-18T08:13:25;-3.90;99.90
7413;DHT22;3748;48.136;11.538;2022-12-18T08:15:58;-2.90;99.90
7413;DHT22;3748;48.136;11.538;2022-12-18T08:18:26;-2.70;99.90
7413;DHT22;3748;48.136;11.538;2022-12-18T08:20:54;-4.10;99.90
7413;DHT22;3748;48.136;11.538;2022-12-18T08:23:22;-4.00;99.90
7413;DHT22;3748;48.136;11.538;2022-12-18T08:25:50;-3.20;99.90
7413;DHT22;3748;48.136;11.538;2022-12-18T08:28:17;-4.10;99.90
7413;DHT22;3748;48.136;11.538;2022-12-18T08:30:45;-4.10;99.90
7413;DHT22;3748;48.136;11.538;2022-12-18T08:33:12;-2.50;99.90
7413;DHT22;3748;48.136;11.538;2022-12-18T08:35:39;-4.10;99.90
7413;DHT22;3748;48.136;11.538;2022-12-18T08:38:06;-4.10;99.90
7413;DHT22;3748;48.136;11.538;2022-12-18T08:40:33;-3.90;99.90
7413;DHT22;3748;48.136;11.538;2022-12-18T08:43:01;-4.20;99.90
7413;DHT22;3748;48.136;11.538;2022-12-18T08:46:01;-4.10;99.90
7413;DHT22;3748;48.136;11.538;2022-12-18T08:48:28;-4.10;99.90
7413;DHT22;3748;48.136;11.538;2022-12-18T08:50:55;-4.10;99.90
7413;DHT22;3748;48.136;11.538;2022-12-18T08:53:22;-4.00;99.90
7413;DHT22;3748;48.136;11.538;2022-12-18T08:55:50;-4.00;99.90
7413;DHT22;3748;48.136;11.538;2022-12-18T08:58:19;-4.00;99.90
7413;DHT22;3748;48.136;11.538;2022-12-18T09:00:58;-3.30;99.90
7413;DHT22;3748;48.136;11.538;2022-12-18T09:11:14;-3.90;99.90
7413;DHT22;3748;48.136;11.538;2022-12-18T09:13:47;-3.60;99.90
7413;DHT22;3748;48.136;11.538;2022-12-18T10:00:45;-3.40;99.90
7413;DHT22;3748;48.136;11.538;2022-12-18T10:03:13;-3.50;99.90
7413;DHT22;3748;48.136;11.538;2022-12-18T10:05:47;-3.50;99.90
7413;DHT22;3748;48.136;11.538;2022-12-18T10:08:20;-3.50;99.90
7413;DHT22;3748;48.136;11.538;2022-12-18T10:10:52;-3.50;99.90
7413;DHT22;3748;48.136;11.538;2022-12-18T10:13:23;-3.50;99.90
7413;DHT22;3748;48.136;11.538;2022-12-18T10:16:03;-3.60;99.90
7413;DHT22;3748;48.136;11.538;2022-12-18T10:19:16;-3.60;99.90
7413;DHT22;3748;48.136;11.538;2022-12-18T10:21:49;-3.60;99.90
7413;DHT22;3748;48.136;11.538;2022-12-18T10:24:24;-3.50;99.90
7413;DHT22;3748;48.136;11.538;2022-12-18T10:26:59;-3.40;99.90
7413;DHT22;3748;48.136;11.538;2022-12-18T10:29:34;-3.30;99.90
7413;DHT22;3748;48.136;11.538;2022-12-18T10:32:04;-3.30;99.90
7413;DHT22;3748;48.136;11.538;2022-12-18T10:34:36;-3.20;99.90
7413;DHT22;3748;48.136;11.538;2022-12-18T10:37:16;-3.10;99.90
7413;DHT22;3748;48.136;11.538;2022-12-18T10:39:47;-3.00;99.90
7413;DHT22;3748;48.136;11.538;2022-12-18T10:42:46;-3.00;99.90
7413;DHT22;3748;48.136;11.538;2022-12-18T10:45:28;-3.00;99.90
7413;DHT22;3748;48.136;11.538;2022-12-18T10:48:18;-3.10;99.90
7413;DHT22;3748;48.136;11.538;2022-12-18T10:51:04;-2.30;99.90
7413;DHT22;3748;48.136;11.538;2022-12-18T10:53:36;-3.10;99.90
7413;DHT22;3748;48.136;11.538;2022-12-18T10:56:34;-3.10;99.90
7413;DHT22;3748;48.136;11.538;2022-12-18T10:59:10;-3.10;99.90
7413;DHT22;3748;48.136;11.538;2022-12-18T11:01:47;-3.00;99.90
7413;DHT22;3748;48.136;11.538;2022-12-18T11:04:20;-2.50;99.90
7413;DHT22;3748;48.136;11.538;2022-12-18T11:06:57;-3.10;99.90
7413;DHT22;3748;48.136;11.538;2022-12-18T11:09:25;-3.20;99.90
7413;DHT22;3748;48.136;11.538;2022-12-18T11:11:54;-3.10;99.90
7413;DHT22;3748;48.136;11.538;2022-12-18T11:14:23;-3.00;99.90
7413;DHT22;3748;48.136;11.538;2022-12-18T11:16:52;-3.00;99.90
7413;DHT22;3748;48.136;11.538;2022-12-18T11:19:30;-2.90;99.90
7413;DHT22;3748;48.136;11.538;2022-12-18T11:21:59;-2.80;99.90
7413;DHT22;3748;48.136;11.538;2022-12-18T11:24:35;-2.80;99.90
7413;DHT22;3748;48.136;11.538;2022-12-18T11:27:04;-3.00;99.90
7413;DHT22;3748;48.136;11.538;2022-12-18T11:29:34;-2.90;99.90
7413;DHT22;3748;48.136;11.538;2022-12-18T11:32:33;-2.80;99.90
7413;DHT22;3748;48.136;11.538;2022-12-18T11:35:13;-2.70;99.90
7413;DHT22;3748;48.136;11.538;2022-12-18T11:37:49;-2.60;99.90
7413;DHT22;3748;48.136;11.538;2022-12-18T11:40:24;-2.60;99.90
7413;DHT22;3748;48.136;11.538;2022-12-18T11:42:57;-2.60;99.90
7413;DHT22;3748;48.136;11.538;2022-12-18T11:45:29;-1.80;99.90
7413;DHT22;3748;48.136;11.538;2022-12-18T11:48:01;-1.80;99.90
7413;DHT22;3748;48.136;11.538;2022-12-18T11:50:46;-2.80;99.90
7413;DHT22;3748;48.136;11.538;2022-12-18T11:53:30;-2.80;99.90
7413;DHT22;3748;48.136;11.538;2022-12-18T11:56:05;-2.70;99.90
7413;DHT22;3748;48.136;11.538;2022-12-18T11:58:46;-2.70;99.90
7413;DHT22;3748;48.136;11.538;2022-12-18T12:01:20;-2.60;99.90
7413;DHT22;3748;48.136;11.538;2022-12-18T12:04:08;-2.40;99.90
7413;DHT22;3748;48.136;11.538;2022-12-18T12:06:46;-2.60;99.90
7413;DHT22;3748;48.136;11.538;2022-12-18T12:09:18;-2.70;99.90
7413;DHT22;3748;48.136;11.538;2022-12-18T12:11:55;-2.90;99.90
7413;DHT22;3748;48.136;11.538;2022-12-18T12:14:43;-2.40;99.90
7413;DHT22;3748;48.136;11.538;2022-12-18T12:17:34;-2.80;99.90
7413;DHT22;3748;48.136;11.538;2022-12-18T12:20:09;-2.80;99.90
7413;DHT22;3748;48.136;11.538;2022-12-18T12:25:39;-2.70;99.90
7413;DHT22;3748;48.136;11.538;2022-12-18T12:28:19;-2.80;99.90
7413;DHT22;3748;48.136;11.538;2022-12-18T12:30:58;-2.70;99.90
7413;DHT22;3748;48.136;11.538;2022-12-18T12:33:36;-3.10;99.90
7413;DHT22;3748;48.136;11.538;2022-12-18T12:36:12;-3.10;99.90
7413;DHT22;3748;48.136;11.538;2022-12-18T12:38:49;-3.20;99.90
7413;DHT22;3748;48.136;11.538;2022-12-18T12:41:28;-3.90;99.90
7413;DHT22;3748;48.136;11.538;2022-12-18T12:44:19;-3.20;99.90
7413;DHT22;3748;48.136;11.538;2022-12-18T12:46:49;-3.40;99.90
7413;DHT22;3748;48.136;11.538;2022-12-18T12:49:20;-3.30;99.90
7413;DHT22;3748;48.136;11.538;2022-12-18T12:51:58;-3.10;99.90
7413;DHT22;3748;48.136;11.538;2022-12-18T12:54:28;-3.20;99.90
7413;DHT22;3748;48.136;11.538;2022-12-18T12:57:00;-3.90;99.90
7413;DHT22;3748;48.136;11.538;2022-12-18T12:59:46;-3.80;99.90
7413;DHT22;3748;48.136;11.538;2022-12-18T13:02:20;-3.60;99.90
7413;DHT22;3748;48.136;11.538;2022-12-18T13:04:52;-4.30;99.90
7413;DHT22;3748;48.136;11.538;2022-12-18T13:07:23;-4.30;99.90
7413;DHT22;3748;48.136;11.538;2022-12-18T13:10:22;-3.90;99.90
7413;DHT22;3748;48.136;11.538;2022-12-18T13:12:55;-3.70;99.90
7413;DHT22;3748;48.136;11.538;2022-12-18T13:15:23;-3.60;99.90
7413;DHT22;3748;48.136;11.538;2022-12-18T13:18:04;-3.60;99.90
7413;DHT22;3748;48.136;11.538;2022-12-18T13:20:33;-3.40;99.90
7413;DHT22;3748;48.136;11.538;2022-12-18T13:23:01;-3.70;99.90
7413;DHT22;3748;48.136;11.538;2022-12-18T13:25:48;-3.80;99.90
7413;DHT22;3748;48.136;11.538;2022-12-18T13:28:15;-3.40;99.90
7413;DHT22;3748;48.136;11.538;2022-12-18T13:30:54;-3.30;99.90
7413;DHT22;3748;48.136;11.538;2022-12-18T13:33:37;-3.20;99.90
7413;DHT22;3748;48.136;11.538;2022-12-18T13:36:15;-3.20;99.90
7413;DHT22;3748;48.136;11.538;2022-12-18T13:38:43;-3.20;99.90
7413;DHT22;3748;48.136;11.538;2022-12-18T13:41:25;-2.40;99.90
7413;DHT22;3748;48.136;11.538;2022-12-18T13:43:53;-3.40;99.90
7413;DHT22;3748;48.136;11.538;2022-12-18T13:46:22;-3.30;99.90
7413;DHT22;3748;48.136;11.538;2022-12-18T13:48:58;-3.40;99.90
7413;DHT22;3748;48.136;11.538;2022-12-18T13:51:26;-3.40;99.90
7413;DHT22;3748;48.136;11.538;2022-12-18T13:53:56;-3.40;99.90
7413;DHT22;3748;48.136;11.538;2022-12-18T13:56:28;-3.30;99.90
7413;DHT22;3748;48.136;11.538;2022-12-18T13:59:19;-3.50;99.90
7413;DHT22;3748;48.136;11.538;2022-12-18T14:01:50;-3.50;99.90
7413;DHT22;3748;48.136;11.538;2022-12-18T14:04:24;-3.50;99.90
7413;DHT22;3748;48.136;11.538;2022-12-18T14:06:53;-3.60;99.90
7413;DHT22;3748;48.136;11.538;2022-12-18T14:09:24;-3.50;99.90
7413;DHT22;3748;48.136;11.538;2022-12-18T14:11:53;-3.60;99.90
7413;DHT22;3748;48.136;11.538;2022-12-18T14:14:44;-3.60;99.90
7413;DHT22;3748;48.136;11.538;2022-12-18T14:17:13;-3.60;99.90
7413;DHT22;3748;48.136;11.538;2022-12-18T14:19:43;-3.80;99.90
7413;DHT22;3748;48.136;11.538;2022-12-18T14:22:18;-3.80;99.90
7413;DHT22;3748;48.136;11.538;2022-12-18T14:24:46;-3.80;99.90
7413;DHT22;3748;48.136;11.538;2022-12-18T14:27:23;-3.80;99.90
7413;DHT22;3748;48.136;11.538;2022-12-18T14:29:50;-3.80;99.90
7413;DHT22;3748;48.136;11.538;2022-12-18T14:32:19;-3.90;99.90
7413;DHT22;3748;48.136;11.538;2022-12-18T14:34:59;-4.00;99.90
7413;DHT22;3748;48.136;11.538;2022-12-18T14:37:38;-4.20;99.90
7413;DHT22;3748;48.136;11.538;2022-12-18T14:40:13;-4.10;99.90
7413;DHT22;3748;48.136;11.538;2022-12-18T14:42:42;-4.00;99.90
7413;DHT22;3748;48.136;11.538;2022-12-18T14:45:35;-3.90;99.90
7413;DHT22;3748;48.136;11.538;2022-12-18T14:48:07;-3.80;99.90
7413;DHT22;3748;48.136;11.538;2022-12-18T14:50:34;-3.80;99.90
7413;DHT22;3748;48.136;11.538;2022-12-18T14:53:03;-3.70;99.90
7413;DHT22;3748;48.136;11.538;2022-12-18T14:55:30;-3.80;99.90
7413;DHT22;3748;48.136;11.538;2022-12-18T14:57:58;-3.80;99.90
7413;DHT22;3748;48.136;11.538;2022-12-18T15:00:25;-4.10;99.90
7413;DHT22;3748;48.136;11.538;2022-12-18T15:02:54;-4.30;99.90
7413;DHT22;3748;48.136;11.538;2022-12-18T15:05:25;-4.20;99.90
7413;DHT22;3748;48.136;11.538;2022-12-18T15:07:54;-4.20;99.90
7413;DHT22;3748;48.136;11.538;2022-12-18T15:10:24;-4.20;99.90
7413;DHT22;3748;48.136;11.538;2022-12-18T15:13:09;-4.50;99.90
7413;DHT22;3748;48.136;11.538;2022-12-18T15:15:49;-4.80;99.90
7413;DHT22;3748;48.136;11.538;2022-12-18T15:18:19;-5.10;99.90
7413;DHT22;3748;48.136;11.538;2022-12-18T15:20:49;-5.00;99.90
7413;DHT22;3748;48.136;11.538;2022-12-18T15:23:20;-5.10;99.90
7413;DHT22;3748;48.136;11.538;2022-12-18T15:25:49;-5.20;99.90
7413;DHT22;3748;48.136;11.538;2022-12-18T15:28:24;-5.10;99.90
7413;DHT22;3748;48.136;11.538;2022-12-18T15:31:01;-5.20;99.90
7413;DHT22;3748;48.136;11.538;2022-12-18T15:33:33;-5.20;99.90
7413;DHT22;3748;48.136;11.538;2022-12-18T15:36:01;-5.10;99.90
7413;DHT22;3748;48.136;11.538;2022-12-18T15:38:28;-4.80;99.90
7413;DHT22;3748;48.136;11.538;2022-12-18T15:41:02;-4.70;99.90
7413;DHT22;3748;48.136;11.538;2022-12-18T15:43:31;-4.70;99.90
7413;DHT22;3748;48.136;11.538;2022-12-18T15:46:01;-4.60;99.90
7413;DHT22;3748;48.136;11.538;2022-12-18T15:48:32;-4.60;99.90
7413;DHT22;3748;48.136;11.538;2022-12-18T15:51:02;-4.50;99.90
7413;DHT22;3748;48.136;11.538;2022-12-18T15:53:31;-4.50;99.90
7413;DHT22;3748;48.136;11.538;2022-12-18T15:56:00;-4.40;99.90
7413;DHT22;3748;48.136;11.538;2022-12-18T15:58:49;-4.30;99.90
7413;DHT22;3748;48.136;11.538;2022-12-18T16:01:18;-4.40;99.90
7413;DHT22;3748;48.136;11.538;2022-12-18T17:18:13;-4.40;99.90
7413;DHT22;3748;48.136;11.538;2022-12-18T17:20:40;-4.50;99.90
7413;DHT22;3748;48.136;11.538;2022-12-18T17:23:11;-4.50;99.90
7413;DHT22;3748;48.136;11.538;2022-12-18T17:25:41;-4.50;99.90
7413;DHT22;3748;48.136;11.538;2022-12-18T17:28:15;-4.50;99.90
7413;DHT22;3748;48.136;11.538;2022-12-18T17:30:48;-4.50;99.90
7413;DHT22;3748;48.136;11.538;2022-12-18T17:33:41;-4.50;99.90
7413;DHT22;3748;48.136;11.538;2022-12-18T17:36:09;-4.40;99.90
7413;DHT22;3748;48.136;11.538;2022-12-18T17:38:37;-4.40;99.90
7413;DHT22;3748;48.136;11.538;2022-12-18T17:41:06;-4.50;99.90
7413;DHT22;3748;48.136;11.538;2022-12-18T17:43:34;-4.60;99.90
7413;DHT22;3748;48.136;11.538;2022-12-18T17:46:13;-3.90;99.90
7413;DHT22;3748;48.136;11.538;2022-12-18T17:48:42;-4.60;99.90
7413;DHT22;3748;48.136;11.538;2022-12-18T17:51:10;-4.50;99.90
7413;DHT22;3748;48.136;11.538;2022-12-18T17:53:37;-4.50;99.90
7413;DHT22;3748;48.136;11.538;2022-12-18T17:56:05;-4.40;99.90
7413;DHT22;3748;48.136;11.538;2022-12-18T17:58:35;-4.40;99.90
7413;DHT22;3748;48.136;11.538;2022-12-18T18:01:03;-4.40;99.90
7413;DHT22;3748;48.136;11.538;2022-12-18T18:04:09;-4.50;99.90
7413;DHT22;3748;48.136;11.538;2022-12-18T18:06:22;-4.50;99.90
7413;DHT22;3748;48.136;11.538;2022-12-18T18:08:50;-4.50;99.90
7413;DHT22;3748;48.136;11.538;2022-12-18T18:11:21;-4.50;99.90
7413;DHT22;3748;48.136;11.538;2022-12-18T18:14:10;-4.50;99.90
7413;DHT22;3748;48.136;11.538;2022-12-18T18:16:38;-4.60;99.90
7413;DHT22;3748;48.136;11.538;2022-12-18T18:19:29;-4.60;99.90
7413;DHT22;3748;48.136;11.538;2022-12-18T18:22:06;-4.50;99.90
7413;DHT22;3748;48.136;11.538;2022-12-18T18:24:33;-4.60;99.90
7413;DHT22;3748;48.136;11.538;2022-12-18T18:27:28;-4.50;99.90
7413;DHT22;3748;48.136;11.538;2022-12-18T18:30:07;-4.60;99.90
7413;DHT22;3748;48.136;11.538;2022-12-18T18:32:38;-5.10;99.90
7413;DHT22;3748;48.136;11.538;2022-12-18T18:35:19;-5.10;99.90
7413;DHT22;3748;48.136;11.538;2022-12-18T18:37:48;-4.90;99.90
7413;DHT22;3748;48.136;11.538;2022-12-18T18:40:21;-4.90;99.90
7413;DHT22;3748;48.136;11.538;2022-12-18T18:42:49;-4.90;99.90
7413;DHT22;3748;48.136;11.538;2022-12-18T18:45:21;-5.00;99.90
7413;DHT22;3748;48.136;11.538;2022-12-18T18:47:49;-4.90;99.90
7413;DHT22;3748;48.136;11.538;2022-12-18T18:50:19;-5.00;99.90
7413;DHT22;3748;48.136;11.538;2022-12-18T18:52:48;-4.90;99.90
7413;DHT22;3748;48.136;11.538;2022-12-18T18:55:15;-4.90;99.90
7413;DHT22;3748;48.136;11.538;2022-12-18T18:57:42;-4.90;99.90
7413;DHT22;3748;48.136;11.538;2022-12-18T19:02:44;-4.80;99.90
7413;DHT22;3748;48.136;11.538;2022-12-18T19:05:12;-4.90;99.90
7413;DHT22;3748;48.136;11.538;2022-12-18T19:07:39;-5.20;99.90
7413;DHT22;3748;48.136;11.538;2022-12-18T19:10:09;-5.10;99.90
7413;DHT22;3748;48.136;11.538;2022-12-18T19:12:36;-5.00;99.90
7413;DHT22;3748;48.136;11.538;2022-12-18T19:15:20;-4.90;99.90
7413;DHT22;3748;48.136;11.538;2022-12-18T19:17:47;-4.90;99.90
7413;DHT22;3748;48.136;11.538;2022-12-18T19:20:15;-5.00;99.90
7413;DHT22;3748;48.136;11.538;2022-12-18T19:22:42;-4.90;99.90
7413;DHT22;3748;48.136;11.538;2022-12-18T19:25:10;-4.90;99.90
7413;DHT22;3748;48.136;11.538;2022-12-18T19:27:49;-5.00;99.90
7413;DHT22;3748;48.136;11.538;2022-12-18T19:30:16;-5.30;99.90
7413;DHT22;3748;48.136;11.538;2022-12-18T19:32:43;-5.10;99.90
7413;DHT22;3748;48.136;11.538;2022-12-18T19:35:10;-5.10;99.90
7413;DHT22;3748;48.136;11.538;2022-12-18T19:37:37;-5.00;99.90
7413;DHT22;3748;48.136;11.538;2022-12-18T19:40:06;-5.00;99.90
7413;DHT22;3748;48.136;11.538;2022-12-18T19:42:35;-5.00;99.90
7413;DHT22;3748;48.136;11.538;2022-12-18T19:45:10;-4.80;99.90
7413;DHT22;3748;48.136;11.538;2022-12-18T19:47:37;-4.90;99.90
7413;DHT22;3748;48.136;11.538;2022-12-18T19:50:05;-5.10;99.90
7413;DHT22;3748;48.136;11.538;2022-12-18T19:52:32;-5.00;99.90
7413;DHT22;3748;48.136;11.538;2022-12-18T19:54:59;-5.30;99.90
7413;DHT22;3748;48.136;11.538;2022-12-18T19:57:26;-5.40;99.90
7413;DHT22;3748;48.136;11.538;2022-12-18T19:59:55;-5.40;99.90
7413;DHT22;3748;48.136;11.538;2022-12-18T20:02:22;-5.70;99.90
7413;DHT22;3748;48.136;11.538;2022-12-18T20:04:51;-5.80;99.90
7413;DHT22;3748;48.136;11.538;2022-12-18T20:07:21;-5.90;99.90
7413;DHT22;3748;48.136;11.538;2022-12-18T20:09:47;-5.90;99.90
7413;DHT22;3748;48.136;11.538;2022-12-18T20:12:14;-6.00;99.90
7413;DHT22;3748;48.136;11.538;2022-12-18T20:14:43;-6.00;99.90
7413;DHT22;3748;48.136;11.538;2022-12-18T20:20:51;-5.90;99.90
7413;DHT22;3748;48.136;11.538;2022-12-18T20:23:33;-5.70;99.90
7413;DHT22;3748;48.136;11.538;2022-12-18T20:26:01;-4.90;99.90